Terminal Aerodrome Forecast
Issued by NWS

Home | Current Version | Previous Version | Graphics & Text | Print | Product List | Glossary On
Versions: 1 2 3 4 5 6 7 8 9 10 11 12 13 14 15 16 17 18 19 20 21 22
000
FTUS43 KGRB 060520
TAFMTW
TAF
KMTW 060520Z 0606/0706 15009KT 5SM BR OVC007
      TEMPO 0606/0608 SCT007 BKN120
     FM061500 16010KT P6SM OVC015
     FM062000 22010G17KT P6SM BKN020
     FM062300 25015G25KT P6SM -SHSN SCT020 BKN030=

USA.gov is the U.S. government's official web portal to all federal, state and local government web resources and services.